sensor_id;sensor_type;location;lat;lon;timestamp;P1;durP1;ratioP1;P2;durP2;ratioP2
15952;SDS011;8075;47.766;8.846;2023-05-07T00:01:46;2.58;;;2.38;;
15952;SDS011;8075;47.766;8.846;2023-05-07T00:04:12;3.30;;;2.50;;
15952;SDS011;8075;47.766;8.846;2023-05-07T00:06:38;3.22;;;2.70;;
15952;SDS011;8075;47.766;8.846;2023-05-07T00:09:04;2.55;;;2.35;;
15952;SDS011;8075;47.766;8.846;2023-05-07T00:11:30;3.55;;;2.40;;
15952;SDS011;8075;47.766;8.846;2023-05-07T00:13:57;2.78;;;2.38;;
15952;SDS011;8075;47.766;8.846;2023-05-07T00:16:23;4.10;;;2.50;;
15952;SDS011;8075;47.766;8.846;2023-05-07T00:18:49;2.63;;;2.30;;
15952;SDS011;8075;47.766;8.846;2023-05-07T00:21:15;3.00;;;2.70;;
15952;SDS011;8075;47.766;8.846;2023-05-07T00:23:41;2.47;;;2.28;;
15952;SDS011;8075;47.766;8.846;2023-05-07T00:26:07;2.47;;;2.27;;
15952;SDS011;8075;47.766;8.846;2023-05-07T00:28:33;2.70;;;2.50;;
15952;SDS011;8075;47.766;8.846;2023-05-07T00:30:59;3.38;;;2.70;;
15952;SDS011;8075;47.766;8.846;2023-05-07T00:33:25;2.55;;;2.35;;
15952;SDS011;8075;47.766;8.846;2023-05-07T00:35:51;2.50;;;2.30;;
15952;SDS011;8075;47.766;8.846;2023-05-07T00:38:19;3.10;;;2.78;;
15952;SDS011;8075;47.766;8.846;2023-05-07T00:40:45;2.47;;;2.28;;
15952;SDS011;8075;47.766;8.846;2023-05-07T00:43:11;2.50;;;2.30;;
15952;SDS011;8075;47.766;8.846;2023-05-07T00:45:37;2.70;;;2.50;;
15952;SDS011;8075;47.766;8.846;2023-05-07T00:48:04;2.75;;;2.55;;
15952;SDS011;8075;47.766;8.846;2023-05-07T00:50:30;3.30;;;2.45;;
15952;SDS011;8075;47.766;8.846;2023-05-07T00:52:57;2.60;;;2.40;;
15952;SDS011;8075;47.766;8.846;2023-05-07T00:55:23;2.72;;;2.50;;
15952;SDS011;8075;47.766;8.846;2023-05-07T00:57:49;2.60;;;2.40;;
15952;SDS011;8075;47.766;8.846;2023-05-07T01:00:15;2.53;;;2.30;;
15952;SDS011;8075;47.766;8.846;2023-05-07T01:02:42;2.40;;;2.30;;
15952;SDS011;8075;47.766;8.846;2023-05-07T01:05:09;2.92;;;2.50;;
15952;SDS011;8075;47.766;8.846;2023-05-07T01:07:35;2.87;;;2.40;;
15952;SDS011;8075;47.766;8.846;2023-05-07T01:10:02;2.35;;;2.20;;
15952;SDS011;8075;47.766;8.846;2023-05-07T01:12:28;2.92;;;2.47;;
15952;SDS011;8075;47.766;8.846;2023-05-07T01:14:55;2.72;;;2.53;;
15952;SDS011;8075;47.766;8.846;2023-05-07T01:17:21;2.60;;;2.40;;
15952;SDS011;8075;47.766;8.846;2023-05-07T01:19:47;2.50;;;2.30;;
15952;SDS011;8075;47.766;8.846;2023-05-07T01:22:14;2.70;;;2.50;;
15952;SDS011;8075;47.766;8.846;2023-05-07T01:24:41;2.90;;;2.60;;
15952;SDS011;8075;47.766;8.846;2023-05-07T01:27:07;2.67;;;2.47;;
15952;SDS011;8075;47.766;8.846;2023-05-07T01:29:33;2.63;;;2.42;;
15952;SDS011;8075;47.766;8.846;2023-05-07T01:31:59;2.70;;;2.50;;
15952;SDS011;8075;47.766;8.846;2023-05-07T01:34:27;2.97;;;2.30;;
15952;SDS011;8075;47.766;8.846;2023-05-07T01:36:54;2.67;;;2.35;;
15952;SDS011;8075;47.766;8.846;2023-05-07T01:39:24;2.50;;;2.30;;
15952;SDS011;8075;47.766;8.846;2023-05-07T01:41:50;2.85;;;2.28;;
15952;SDS011;8075;47.766;8.846;2023-05-07T01:44:16;3.22;;;2.30;;
15952;SDS011;8075;47.766;8.846;2023-05-07T01:46:44;2.63;;;2.20;;
15952;SDS011;8075;47.766;8.846;2023-05-07T01:49:10;2.63;;;2.42;;
15952;SDS011;8075;47.766;8.846;2023-05-07T01:51:36;2.58;;;2.38;;
15952;SDS011;8075;47.766;8.846;2023-05-07T01:54:02;3.05;;;2.60;;
15952;SDS011;8075;47.766;8.846;2023-05-07T01:56:28;2.80;;;2.50;;
15952;SDS011;8075;47.766;8.846;2023-05-07T01:58:55;2.90;;;2.70;;
15952;SDS011;8075;47.766;8.846;2023-05-07T02:01:21;3.45;;;2.90;;
15952;SDS011;8075;47.766;8.846;2023-05-07T02:03:47;3.20;;;2.60;;
15952;SDS011;8075;47.766;8.846;2023-05-07T02:06:13;2.70;;;2.50;;
15952;SDS011;8075;47.766;8.846;2023-05-07T02:08:39;2.97;;;2.77;;
15952;SDS011;8075;47.766;8.846;2023-05-07T02:11:05;2.58;;;2.22;;
15952;SDS011;8075;47.766;8.846;2023-05-07T02:13:31;2.40;;;2.20;;
15952;SDS011;8075;47.766;8.846;2023-05-07T02:15:58;3.28;;;2.00;;
15952;SDS011;8075;47.766;8.846;2023-05-07T02:18:24;2.60;;;2.40;;
15952;SDS011;8075;47.766;8.846;2023-05-07T02:20:50;2.30;;;2.10;;
15952;SDS011;8075;47.766;8.846;2023-05-07T02:23:16;2.42;;;2.22;;
15952;SDS011;8075;47.766;8.846;2023-05-07T02:25:42;3.30;;;2.30;;
15952;SDS011;8075;47.766;8.846;2023-05-07T02:28:08;2.72;;;2.20;;
15952;SDS011;8075;47.766;8.846;2023-05-07T02:30:35;2.30;;;2.00;;
15952;SDS011;8075;47.766;8.846;2023-05-07T02:33:02;2.35;;;2.10;;
15952;SDS011;8075;47.766;8.846;2023-05-07T02:35:28;3.30;;;1.97;;
15952;SDS011;8075;47.766;8.846;2023-05-07T02:37:54;2.40;;;2.20;;
15952;SDS011;8075;47.766;8.846;2023-05-07T02:40:20;2.50;;;2.20;;
15952;SDS011;8075;47.766;8.846;2023-05-07T02:42:46;2.35;;;2.05;;
15952;SDS011;8075;47.766;8.846;2023-05-07T02:45:12;4.18;;;2.30;;
15952;SDS011;8075;47.766;8.846;2023-05-07T02:47:39;2.42;;;2.08;;
15952;SDS011;8075;47.766;8.846;2023-05-07T02:50:05;3.28;;;2.10;;
15952;SDS011;8075;47.766;8.846;2023-05-07T02:52:31;2.42;;;2.22;;
15952;SDS011;8075;47.766;8.846;2023-05-07T02:54:57;2.17;;;1.92;;
15952;SDS011;8075;47.766;8.846;2023-05-07T02:57:23;2.00;;;1.90;;
15952;SDS011;8075;47.766;8.846;2023-05-07T02:59:49;2.30;;;1.90;;
15952;SDS011;8075;47.766;8.846;2023-05-07T03:02:15;2.30;;;2.10;;
15952;SDS011;8075;47.766;8.846;2023-05-07T03:04:41;3.30;;;2.10;;
15952;SDS011;8075;47.766;8.846;2023-05-07T03:07:07;2.30;;;2.10;;
15952;SDS011;8075;47.766;8.846;2023-05-07T03:09:33;2.50;;;2.25;;
15952;SDS011;8075;47.766;8.846;2023-05-07T03:11:59;2.60;;;2.28;;
15952;SDS011;8075;47.766;8.846;2023-05-07T03:14:26;2.20;;;2.00;;
15952;SDS011;8075;47.766;8.846;2023-05-07T03:16:52;2.40;;;2.20;;
15952;SDS011;8075;47.766;8.846;2023-05-07T03:19:18;2.75;;;2.30;;
15952;SDS011;8075;47.766;8.846;2023-05-07T03:21:44;3.60;;;2.20;;
15952;SDS011;8075;47.766;8.846;2023-05-07T03:24:10;2.40;;;2.20;;
15952;SDS011;8075;47.766;8.846;2023-05-07T03:26:36;2.10;;;2.00;;
15952;SDS011;8075;47.766;8.846;2023-05-07T03:29:02;2.35;;;2.20;;
15952;SDS011;8075;47.766;8.846;2023-05-07T03:31:28;2.60;;;2.40;;
15952;SDS011;8075;47.766;8.846;2023-05-07T03:33:55;2.70;;;2.50;;
15952;SDS011;8075;47.766;8.846;2023-05-07T03:36:22;3.05;;;2.85;;
15952;SDS011;8075;47.766;8.846;2023-05-07T03:38:48;3.47;;;2.90;;
15952;SDS011;8075;47.766;8.846;2023-05-07T03:41:15;2.83;;;2.63;;
15952;SDS011;8075;47.766;8.846;2023-05-07T03:43:41;2.95;;;2.75;;
15952;SDS011;8075;47.766;8.846;2023-05-07T03:46:07;3.30;;;3.00;;
15952;SDS011;8075;47.766;8.846;2023-05-07T03:48:33;3.30;;;3.00;;
15952;SDS011;8075;47.766;8.846;2023-05-07T03:50:59;3.10;;;2.80;;
15952;SDS011;8075;47.766;8.846;2023-05-07T03:53:25;3.92;;;3.03;;
15952;SDS011;8075;47.766;8.846;2023-05-07T03:55:50;2.80;;;2.60;;
15952;SDS011;8075;47.766;8.846;2023-05-07T03:58:16;2.65;;;2.30;;
15952;SDS011;8075;47.766;8.846;2023-05-07T04:00:43;2.70;;;2.42;;
15952;SDS011;8075;47.766;8.846;2023-05-07T04:03:08;2.87;;;2.67;;
15952;SDS011;8075;47.766;8.846;2023-05-07T04:05:34;2.90;;;2.50;;
15952;SDS011;8075;47.766;8.846;2023-05-07T04:08:01;2.58;;;2.38;;
15952;SDS011;8075;47.766;8.846;2023-05-07T04:10:27;2.85;;;2.65;;
15952;SDS011;8075;47.766;8.846;2023-05-07T04:12:53;4.18;;;2.67;;
15952;SDS011;8075;47.766;8.846;2023-05-07T04:15:19;3.00;;;2.80;;
15952;SDS011;8075;47.766;8.846;2023-05-07T04:17:45;2.55;;;2.40;;
15952;SDS011;8075;47.766;8.846;2023-05-07T04:20:15;3.20;;;2.90;;
15952;SDS011;8075;47.766;8.846;2023-05-07T04:22:41;2.63;;;2.43;;
15952;SDS011;8075;47.766;8.846;2023-05-07T04:25:08;2.88;;;2.50;;
15952;SDS011;8075;47.766;8.846;2023-05-07T04:27:35;2.80;;;2.60;;
15952;SDS011;8075;47.766;8.846;2023-05-07T04:30:01;3.15;;;2.90;;
15952;SDS011;8075;47.766;8.846;2023-05-07T04:32:27;3.03;;;2.70;;
15952;SDS011;8075;47.766;8.846;2023-05-07T04:34:54;3.17;;;2.90;;
15952;SDS011;8075;47.766;8.846;2023-05-07T04:37:23;3.40;;;3.10;;
15952;SDS011;8075;47.766;8.846;2023-05-07T04:39:49;3.22;;;2.90;;
15952;SDS011;8075;47.766;8.846;2023-05-07T04:42:15;3.47;;;3.17;;
15952;SDS011;8075;47.766;8.846;2023-05-07T04:44:42;3.95;;;3.40;;
15952;SDS011;8075;47.766;8.846;2023-05-07T04:47:08;3.92;;;3.70;;
15952;SDS011;8075;47.766;8.846;2023-05-07T04:49:34;3.35;;;3.15;;
15952;SDS011;8075;47.766;8.846;2023-05-07T04:52:00;3.70;;;3.50;;
15952;SDS011;8075;47.766;8.846;2023-05-07T04:54:26;4.75;;;3.50;;
15952;SDS011;8075;47.766;8.846;2023-05-07T04:56:52;3.53;;;3.33;;
15952;SDS011;8075;47.766;8.846;2023-05-07T04:59:18;3.58;;;3.38;;
15952;SDS011;8075;47.766;8.846;2023-05-07T05:01:44;3.60;;;3.30;;
15952;SDS011;8075;47.766;8.846;2023-05-07T05:04:10;3.60;;;3.25;;
15952;SDS011;8075;47.766;8.846;2023-05-07T05:06:36;4.03;;;3.70;;
15952;SDS011;8075;47.766;8.846;2023-05-07T05:09:02;3.72;;;3.47;;
15952;SDS011;8075;47.766;8.846;2023-05-07T05:11:29;3.53;;;3.30;;
15952;SDS011;8075;47.766;8.846;2023-05-07T05:13:55;3.38;;;3.17;;
15952;SDS011;8075;47.766;8.846;2023-05-07T05:16:21;3.08;;;2.88;;
15952;SDS011;8075;47.766;8.846;2023-05-07T05:18:48;3.70;;;3.40;;
15952;SDS011;8075;47.766;8.846;2023-05-07T05:21:14;3.38;;;3.17;;
15952;SDS011;8075;47.766;8.846;2023-05-07T05:23:40;3.25;;;2.95;;
15952;SDS011;8075;47.766;8.846;2023-05-07T05:26:06;6.18;;;3.65;;
15952;SDS011;8075;47.766;8.846;2023-05-07T05:28:32;3.35;;;3.15;;
15952;SDS011;8075;47.766;8.846;2023-05-07T05:30:58;4.10;;;3.53;;
15952;SDS011;8075;47.766;8.846;2023-05-07T05:33:24;3.72;;;3.33;;
15952;SDS011;8075;47.766;8.846;2023-05-07T05:35:50;3.58;;;3.38;;
15952;SDS011;8075;47.766;8.846;2023-05-07T05:38:16;3.63;;;3.33;;
15952;SDS011;8075;47.766;8.846;2023-05-07T05:40:42;3.47;;;3.22;;
15952;SDS011;8075;47.766;8.846;2023-05-07T05:43:08;3.50;;;3.20;;
15952;SDS011;8075;47.766;8.846;2023-05-07T05:45:34;4.40;;;3.78;;
15952;SDS011;8075;47.766;8.846;2023-05-07T05:48:00;3.92;;;3.53;;
15952;SDS011;8075;47.766;8.846;2023-05-07T05:50:26;4.30;;;3.90;;
15952;SDS011;8075;47.766;8.846;2023-05-07T05:52:52;3.60;;;3.35;;
15952;SDS011;8075;47.766;8.846;2023-05-07T05:55:18;3.80;;;3.50;;
15952;SDS011;8075;47.766;8.846;2023-05-07T05:57:44;3.90;;;3.60;;
15952;SDS011;8075;47.766;8.846;2023-05-07T06:00:11;3.67;;;3.37;;
15952;SDS011;8075;47.766;8.846;2023-05-07T06:02:37;4.78;;;3.70;;
15952;SDS011;8075;47.766;8.846;2023-05-07T06:05:03;3.90;;;3.60;;
15952;SDS011;8075;47.766;8.846;2023-05-07T06:07:29;4.57;;;3.97;;
15952;SDS011;8075;47.766;8.846;2023-05-07T06:09:55;3.72;;;3.42;;
15952;SDS011;8075;47.766;8.846;2023-05-07T06:12:21;4.10;;;3.80;;
15952;SDS011;8075;47.766;8.846;2023-05-07T06:14:47;3.90;;;3.60;;
15952;SDS011;8075;47.766;8.846;2023-05-07T06:17:13;4.10;;;3.80;;
15952;SDS011;8075;47.766;8.846;2023-05-07T06:19:39;3.90;;;3.60;;
15952;SDS011;8075;47.766;8.846;2023-05-07T06:22:05;4.00;;;3.70;;
15952;SDS011;8075;47.766;8.846;2023-05-07T06:24:31;4.00;;;3.70;;
15952;SDS011;8075;47.766;8.846;2023-05-07T06:26:57;3.80;;;3.50;;
15952;SDS011;8075;47.766;8.846;2023-05-07T06:29:23;4.22;;;3.92;;
15952;SDS011;8075;47.766;8.846;2023-05-07T06:31:51;3.80;;;3.50;;
15952;SDS011;8075;47.766;8.846;2023-05-07T06:34:17;4.00;;;3.70;;
15952;SDS011;8075;47.766;8.846;2023-05-07T06:36:43;4.10;;;3.80;;
15952;SDS011;8075;47.766;8.846;2023-05-07T06:39:09;4.65;;;4.25;;
15952;SDS011;8075;47.766;8.846;2023-05-07T06:41:35;4.18;;;3.88;;
15952;SDS011;8075;47.766;8.846;2023-05-07T06:44:01;4.18;;;3.88;;
15952;SDS011;8075;47.766;8.846;2023-05-07T06:46:28;4.80;;;4.40;;
15952;SDS011;8075;47.766;8.846;2023-05-07T06:48:54;4.25;;;3.95;;
15952;SDS011;8075;47.766;8.846;2023-05-07T06:51:21;4.20;;;3.90;;
15952;SDS011;8075;47.766;8.846;2023-05-07T06:53:47;4.90;;;4.50;;
15952;SDS011;8075;47.766;8.846;2023-05-07T06:56:13;4.50;;;4.20;;
15952;SDS011;8075;47.766;8.846;2023-05-07T06:58:39;4.75;;;4.38;;
15952;SDS011;8075;47.766;8.846;2023-05-07T07:01:05;5.32;;;4.88;;
15952;SDS011;8075;47.766;8.846;2023-05-07T07:03:31;5.03;;;4.63;;
15952;SDS011;8075;47.766;8.846;2023-05-07T07:05:57;5.60;;;5.20;;
15952;SDS011;8075;47.766;8.846;2023-05-07T07:08:24;5.45;;;4.95;;
15952;SDS011;8075;47.766;8.846;2023-05-07T07:10:50;4.50;;;4.20;;
15952;SDS011;8075;47.766;8.846;2023-05-07T07:13:16;5.63;;;5.13;;
15952;SDS011;8075;47.766;8.846;2023-05-07T07:15:42;5.30;;;4.90;;
15952;SDS011;8075;47.766;8.846;2023-05-07T07:18:09;4.80;;;4.00;;
15952;SDS011;8075;47.766;8.846;2023-05-07T07:20:35;4.63;;;4.32;;
15952;SDS011;8075;47.766;8.846;2023-05-07T07:23:01;5.10;;;4.70;;
15952;SDS011;8075;47.766;8.846;2023-05-07T07:25:27;4.82;;;4.50;;
15952;SDS011;8075;47.766;8.846;2023-05-07T07:27:53;4.55;;;4.25;;
15952;SDS011;8075;47.766;8.846;2023-05-07T07:30:19;4.80;;;4.40;;
15952;SDS011;8075;47.766;8.846;2023-05-07T07:32:45;4.60;;;4.30;;
15952;SDS011;8075;47.766;8.846;2023-05-07T07:35:11;4.97;;;4.57;;
15952;SDS011;8075;47.766;8.846;2023-05-07T07:37:37;5.22;;;4.82;;
15952;SDS011;8075;47.766;8.846;2023-05-07T07:40:03;4.90;;;4.50;;
15952;SDS011;8075;47.766;8.846;2023-05-07T07:42:30;5.10;;;4.70;;
15952;SDS011;8075;47.766;8.846;2023-05-07T07:44:55;5.25;;;4.85;;
15952;SDS011;8075;47.766;8.846;2023-05-07T07:47:22;5.40;;;5.00;;
15952;SDS011;8075;47.766;8.846;2023-05-07T07:49:48;4.97;;;4.57;;
15952;SDS011;8075;47.766;8.846;2023-05-07T07:52:14;7.00;;;6.30;;
15952;SDS011;8075;47.766;8.846;2023-05-07T07:54:40;5.70;;;5.30;;
15952;SDS011;8075;47.766;8.846;2023-05-07T07:57:06;6.30;;;5.70;;
15952;SDS011;8075;47.766;8.846;2023-05-07T07:59:32;5.82;;;5.22;;
15952;SDS011;8075;47.766;8.846;2023-05-07T08:01:58;5.45;;;5.00;;
15952;SDS011;8075;47.766;8.846;2023-05-07T08:04:24;6.18;;;5.75;;
15952;SDS011;8075;47.766;8.846;2023-05-07T08:06:50;6.60;;;5.82;;
15952;SDS011;8075;47.766;8.846;2023-05-07T08:09:16;6.13;;;5.63;;
15952;SDS011;8075;47.766;8.846;2023-05-07T08:11:42;4.35;;;4.00;;
15952;SDS011;8075;47.766;8.846;2023-05-07T08:14:08;4.40;;;4.10;;
15952;SDS011;8075;47.766;8.846;2023-05-07T08:16:34;4.00;;;3.70;;
15952;SDS011;8075;47.766;8.846;2023-05-07T08:19:00;4.50;;;4.10;;
15952;SDS011;8075;47.766;8.846;2023-05-07T08:21:26;4.07;;;3.67;;
15952;SDS011;8075;47.766;8.846;2023-05-07T08:23:52;4.57;;;3.78;;
15952;SDS011;8075;47.766;8.846;2023-05-07T08:26:18;4.07;;;3.78;;
15952;SDS011;8075;47.766;8.846;2023-05-07T08:28:45;4.40;;;3.70;;
15952;SDS011;8075;47.766;8.846;2023-05-07T08:31:11;3.22;;;3.00;;
15952;SDS011;8075;47.766;8.846;2023-05-07T08:33:37;3.63;;;3.40;;
15952;SDS011;8075;47.766;8.846;2023-05-07T08:36:03;3.70;;;3.40;;
15952;SDS011;8075;47.766;8.846;2023-05-07T08:38:29;3.50;;;3.20;;
15952;SDS011;8075;47.766;8.846;2023-05-07T08:40:55;3.37;;;3.07;;
15952;SDS011;8075;47.766;8.846;2023-05-07T08:43:22;3.60;;;3.30;;
15952;SDS011;8075;47.766;8.846;2023-05-07T08:45:49;4.93;;;3.70;;
15952;SDS011;8075;47.766;8.846;2023-05-07T08:48:19;7.55;;;6.85;;
15952;SDS011;8075;47.766;8.846;2023-05-07T08:50:47;7.50;;;6.70;;
15952;SDS011;8075;47.766;8.846;2023-05-07T08:53:13;4.53;;;4.13;;
15952;SDS011;8075;47.766;8.846;2023-05-07T08:55:39;4.55;;;3.83;;
15952;SDS011;8075;47.766;8.846;2023-05-07T08:58:05;4.77;;;3.03;;
15952;SDS011;8075;47.766;8.846;2023-05-07T09:00:31;3.83;;;3.53;;
15952;SDS011;8075;47.766;8.846;2023-05-07T09:02:58;6.38;;;5.78;;
15952;SDS011;8075;47.766;8.846;2023-05-07T09:05:23;3.95;;;3.55;;
15952;SDS011;8075;47.766;8.846;2023-05-07T09:07:49;4.23;;;3.40;;
15952;SDS011;8075;47.766;8.846;2023-05-07T09:10:15;5.20;;;3.95;;
15952;SDS011;8075;47.766;8.846;2023-05-07T09:12:41;5.00;;;4.20;;
15952;SDS011;8075;47.766;8.846;2023-05-07T09:15:08;3.38;;;3.08;;
15952;SDS011;8075;47.766;8.846;2023-05-07T09:17:34;3.20;;;2.87;;
15952;SDS011;8075;47.766;8.846;2023-05-07T09:20:03;2.97;;;2.58;;
15952;SDS011;8075;47.766;8.846;2023-05-07T09:22:33;6.03;;;4.50;;
15952;SDS011;8075;47.766;8.846;2023-05-07T09:24:59;3.65;;;3.10;;
15952;SDS011;8075;47.766;8.846;2023-05-07T09:27:25;3.30;;;3.00;;
15952;SDS011;8075;47.766;8.846;2023-05-07T09:29:51;4.03;;;3.72;;
15952;SDS011;8075;47.766;8.846;2023-05-07T09:32:17;4.60;;;3.90;;
15952;SDS011;8075;47.766;8.846;2023-05-07T09:34:43;3.25;;;2.92;;
15952;SDS011;8075;47.766;8.846;2023-05-07T09:37:10;2.60;;;2.40;;
15952;SDS011;8075;47.766;8.846;2023-05-07T09:39:45;5.25;;;4.45;;
15952;SDS011;8075;47.766;8.846;2023-05-07T09:42:11;4.13;;;3.83;;
15952;SDS011;8075;47.766;8.846;2023-05-07T09:44:39;3.03;;;2.40;;
15952;SDS011;8075;47.766;8.846;2023-05-07T09:47:06;3.38;;;2.30;;
15952;SDS011;8075;47.766;8.846;2023-05-07T09:49:36;2.78;;;2.05;;
15952;SDS011;8075;47.766;8.846;2023-05-07T09:52:03;2.27;;;2.00;;
15952;SDS011;8075;47.766;8.846;2023-05-07T09:54:31;3.38;;;2.42;;
15952;SDS011;8075;47.766;8.846;2023-05-07T09:56:57;3.17;;;2.88;;
15952;SDS011;8075;47.766;8.846;2023-05-07T09:59:24;2.15;;;1.95;;
15952;SDS011;8075;47.766;8.846;2023-05-07T10:01:51;2.15;;;1.95;;
15952;SDS011;8075;47.766;8.846;2023-05-07T10:04:17;2.22;;;2.03;;
15952;SDS011;8075;47.766;8.846;2023-05-07T10:06:44;2.22;;;2.05;;
15952;SDS011;8075;47.766;8.846;2023-05-07T10:09:10;3.33;;;2.00;;
15952;SDS011;8075;47.766;8.846;2023-05-07T10:11:36;3.22;;;2.65;;
15952;SDS011;8075;47.766;8.846;2023-05-07T10:14:03;2.60;;;2.30;;
15952;SDS011;8075;47.766;8.846;2023-05-07T10:16:31;2.30;;;2.10;;
15952;SDS011;8075;47.766;8.846;2023-05-07T10:18:58;3.28;;;2.97;;
15952;SDS011;8075;47.766;8.846;2023-05-07T10:21:24;4.63;;;3.95;;
15952;SDS011;8075;47.766;8.846;2023-05-07T10:23:59;7.13;;;6.28;;
15952;SDS011;8075;47.766;8.846;2023-05-07T10:26:42;2.83;;;2.33;;
15952;SDS011;8075;47.766;8.846;2023-05-07T10:29:46;2.72;;;2.13;;
15952;SDS011;8075;47.766;8.846;2023-05-07T10:39:03;3.05;;;2.25;;
15952;SDS011;8075;47.766;8.846;2023-05-07T10:41:49;3.97;;;2.80;;
15952;SDS011;8075;47.766;8.846;2023-05-07T10:44:38;8.25;;;7.55;;
15952;SDS011;8075;47.766;8.846;2023-05-07T10:47:07;4.07;;;2.35;;
15952;SDS011;8075;47.766;8.846;2023-05-07T10:54:45;5.57;;;5.00;;
15952;SDS011;8075;47.766;8.846;2023-05-07T11:05:31;3.83;;;3.15;;
15952;SDS011;8075;47.766;8.846;2023-05-07T11:54:40;3.53;;;2.40;;
15952;SDS011;8075;47.766;8.846;2023-05-07T11:57:22;3.80;;;2.40;;
15952;SDS011;8075;47.766;8.846;2023-05-07T11:59:48;2.60;;;2.03;;
15952;SDS011;8075;47.766;8.846;2023-05-07T12:02:18;2.42;;;2.10;;
15952;SDS011;8075;47.766;8.846;2023-05-07T12:04:44;2.90;;;2.17;;
15952;SDS011;8075;47.766;8.846;2023-05-07T12:07:14;2.38;;;2.17;;
15952;SDS011;8075;47.766;8.846;2023-05-07T12:09:40;2.40;;;2.20;;
15952;SDS011;8075;47.766;8.846;2023-05-07T12:12:06;2.78;;;2.28;;
15952;SDS011;8075;47.766;8.846;2023-05-07T12:14:33;2.90;;;2.13;;
15952;SDS011;8075;47.766;8.846;2023-05-07T12:17:00;2.70;;;2.50;;
15952;SDS011;8075;47.766;8.846;2023-05-07T12:19:30;3.00;;;2.35;;
15952;SDS011;8075;47.766;8.846;2023-05-07T12:21:56;3.10;;;2.40;;
15952;SDS011;8075;47.766;8.846;2023-05-07T12:24:22;2.80;;;2.20;;
15952;SDS011;8075;47.766;8.846;2023-05-07T12:26:48;3.53;;;2.38;;
15952;SDS011;8075;47.766;8.846;2023-05-07T12:29:14;2.70;;;2.40;;
15952;SDS011;8075;47.766;8.846;2023-05-07T12:31:41;2.93;;;2.13;;
15952;SDS011;8075;47.766;8.846;2023-05-07T12:34:07;2.20;;;2.00;;
15952;SDS011;8075;47.766;8.846;2023-05-07T12:36:39;2.97;;;1.90;;
15952;SDS011;8075;47.766;8.846;2023-05-07T12:39:06;2.35;;;2.15;;
15952;SDS011;8075;47.766;8.846;2023-05-07T12:41:55;4.15;;;2.33;;
15952;SDS011;8075;47.766;8.846;2023-05-07T12:44:23;3.08;;;2.58;;
15952;SDS011;8075;47.766;8.846;2023-05-07T12:46:49;3.38;;;2.10;;
15952;SDS011;8075;47.766;8.846;2023-05-07T12:49:15;2.72;;;2.30;;
15952;SDS011;8075;47.766;8.846;2023-05-07T12:51:43;2.37;;;2.17;;
15952;SDS011;8075;47.766;8.846;2023-05-07T12:54:09;2.53;;;2.08;;
15952;SDS011;8075;47.766;8.846;2023-05-07T12:56:38;2.42;;;2.22;;
15952;SDS011;8075;47.766;8.846;2023-05-07T12:59:04;2.78;;;2.10;;
15952;SDS011;8075;47.766;8.846;2023-05-07T13:01:30;2.85;;;2.10;;
15952;SDS011;8075;47.766;8.846;2023-05-07T13:03:57;1.75;;;1.35;;
15952;SDS011;8075;47.766;8.846;2023-05-07T13:06:26;1.20;;;1.10;;
15952;SDS011;8075;47.766;8.846;2023-05-07T13:08:52;1.30;;;1.00;;
15952;SDS011;8075;47.766;8.846;2023-05-07T13:11:18;2.58;;;1.02;;
15952;SDS011;8075;47.766;8.846;2023-05-07T13:13:45;1.35;;;0.98;;
15952;SDS011;8075;47.766;8.846;2023-05-07T13:16:11;2.70;;;0.95;;
15952;SDS011;8075;47.766;8.846;2023-05-07T13:18:38;1.23;;;0.90;;
15952;SDS011;8075;47.766;8.846;2023-05-07T13:21:04;1.63;;;0.80;;
15952;SDS011;8075;47.766;8.846;2023-05-07T13:23:30;2.10;;;0.90;;
15952;SDS011;8075;47.766;8.846;2023-05-07T13:25:56;1.38;;;0.80;;
15952;SDS011;8075;47.766;8.846;2023-05-07T13:28:23;1.45;;;0.80;;
15952;SDS011;8075;47.766;8.846;2023-05-07T13:30:49;1.33;;;0.82;;
15952;SDS011;8075;47.766;8.846;2023-05-07T13:33:17;1.10;;;0.95;;
15952;SDS011;8075;47.766;8.846;2023-05-07T13:35:43;1.10;;;0.80;;
15952;SDS011;8075;47.766;8.846;2023-05-07T13:38:09;1.53;;;1.00;;
15952;SDS011;8075;47.766;8.846;2023-05-07T13:40:35;1.33;;;1.10;;
15952;SDS011;8075;47.766;8.846;2023-05-07T13:43:01;1.30;;;1.00;;
15952;SDS011;8075;47.766;8.846;2023-05-07T13:45:27;0.98;;;0.90;;
15952;SDS011;8075;47.766;8.846;2023-05-07T13:47:54;1.40;;;0.90;;
15952;SDS011;8075;47.766;8.846;2023-05-07T13:50:20;0.95;;;0.90;;
15952;SDS011;8075;47.766;8.846;2023-05-07T13:52:46;1.00;;;0.90;;
15952;SDS011;8075;47.766;8.846;2023-05-07T13:55:18;2.28;;;0.93;;
15952;SDS011;8075;47.766;8.846;2023-05-07T13:57:45;1.70;;;0.95;;
15952;SDS011;8075;47.766;8.846;2023-05-07T14:00:11;1.40;;;1.02;;
15952;SDS011;8075;47.766;8.846;2023-05-07T14:02:38;2.72;;;1.20;;
15952;SDS011;8075;47.766;8.846;2023-05-07T14:05:04;1.70;;;1.07;;
15952;SDS011;8075;47.766;8.846;2023-05-07T14:07:30;1.95;;;0.90;;
15952;SDS011;8075;47.766;8.846;2023-05-07T14:09:56;1.52;;;0.90;;
15952;SDS011;8075;47.766;8.846;2023-05-07T14:12:24;3.00;;;1.00;;
15952;SDS011;8075;47.766;8.846;2023-05-07T14:14:50;1.60;;;1.00;;
15952;SDS011;8075;47.766;8.846;2023-05-07T14:17:16;1.23;;;1.00;;
15952;SDS011;8075;47.766;8.846;2023-05-07T14:19:43;1.00;;;0.90;;
15952;SDS011;8075;47.766;8.846;2023-05-07T14:22:09;1.13;;;0.90;;
15952;SDS011;8075;47.766;8.846;2023-05-07T14:24:35;1.48;;;1.10;;
15952;SDS011;8075;47.766;8.846;2023-05-07T14:27:01;1.67;;;1.17;;
15952;SDS011;8075;47.766;8.846;2023-05-07T14:29:27;5.20;;;1.10;;
15952;SDS011;8075;47.766;8.846;2023-05-07T14:31:53;1.70;;;0.90;;
15952;SDS011;8075;47.766;8.846;2023-05-07T14:34:19;1.60;;;1.10;;
15952;SDS011;8075;47.766;8.846;2023-05-07T14:36:45;2.35;;;1.00;;
15952;SDS011;8075;47.766;8.846;2023-05-07T14:39:11;1.70;;;1.00;;
15952;SDS011;8075;47.766;8.846;2023-05-07T14:41:38;1.45;;;1.10;;
15952;SDS011;8075;47.766;8.846;2023-05-07T14:44:04;1.23;;;1.10;;
15952;SDS011;8075;47.766;8.846;2023-05-07T14:46:30;2.33;;;0.93;;
15952;SDS011;8075;47.766;8.846;2023-05-07T14:48:56;1.27;;;1.05;;
15952;SDS011;8075;47.766;8.846;2023-05-07T14:51:22;2.40;;;1.17;;
15952;SDS011;8075;47.766;8.846;2023-05-07T14:53:49;1.83;;;1.10;;
15952;SDS011;8075;47.766;8.846;2023-05-07T14:56:16;1.47;;;0.70;;
15952;SDS011;8075;47.766;8.846;2023-05-07T14:58:42;1.17;;;0.77;;
15952;SDS011;8075;47.766;8.846;2023-05-07T15:01:09;0.63;;;0.60;;
15952;SDS011;8075;47.766;8.846;2023-05-07T15:03:35;0.80;;;0.68;;
15952;SDS011;8075;47.766;8.846;2023-05-07T15:06:01;1.10;;;0.87;;
15952;SDS011;8075;47.766;8.846;2023-05-07T15:08:27;1.05;;;0.82;;
15952;SDS011;8075;47.766;8.846;2023-05-07T15:10:53;1.73;;;0.80;;
15952;SDS011;8075;47.766;8.846;2023-05-07T15:13:20;1.15;;;0.82;;
15952;SDS011;8075;47.766;8.846;2023-05-07T15:15:46;1.05;;;0.77;;
15952;SDS011;8075;47.766;8.846;2023-05-07T15:18:13;1.27;;;0.88;;
15952;SDS011;8075;47.766;8.846;2023-05-07T15:20:39;0.93;;;0.73;;
15952;SDS011;8075;47.766;8.846;2023-05-07T15:23:06;1.48;;;0.98;;
15952;SDS011;8075;47.766;8.846;2023-05-07T15:25:37;1.98;;;0.95;;
15952;SDS011;8075;47.766;8.846;2023-05-07T15:28:03;1.50;;;0.90;;
15952;SDS011;8075;47.766;8.846;2023-05-07T15:30:30;1.38;;;1.00;;
15952;SDS011;8075;47.766;8.846;2023-05-07T15:32:56;1.25;;;0.93;;
15952;SDS011;8075;47.766;8.846;2023-05-07T15:35:22;1.58;;;1.00;;
15952;SDS011;8075;47.766;8.846;2023-05-07T15:37:48;2.03;;;1.10;;
15952;SDS011;8075;47.766;8.846;2023-05-07T15:40:15;1.08;;;0.98;;
15952;SDS011;8075;47.766;8.846;2023-05-07T15:42:41;1.80;;;1.00;;
15952;SDS011;8075;47.766;8.846;2023-05-07T15:45:07;1.15;;;1.00;;
15952;SDS011;8075;47.766;8.846;2023-05-07T15:47:34;2.10;;;1.00;;
15952;SDS011;8075;47.766;8.846;2023-05-07T15:50:00;1.05;;;0.90;;
15952;SDS011;8075;47.766;8.846;2023-05-07T15:52:27;1.73;;;1.00;;
15952;SDS011;8075;47.766;8.846;2023-05-07T15:54:53;2.13;;;1.07;;
15952;SDS011;8075;47.766;8.846;2023-05-07T15:57:20;1.45;;;0.98;;
15952;SDS011;8075;47.766;8.846;2023-05-07T15:59:46;1.23;;;1.10;;
15952;SDS011;8075;47.766;8.846;2023-05-07T16:02:12;1.10;;;0.95;;
15952;SDS011;8075;47.766;8.846;2023-05-07T16:04:38;1.90;;;1.13;;